sensor_id;sensor_type;location;lat;lon;timestamp;pressure;altitude;pressure_sealevel;temperature
10058;BMP180;5068;51.286;7.518;2023-03-23T00:01:22;98283.00;;;14.50
10058;BMP180;5068;51.286;7.518;2023-03-23T00:02:57;98285.00;;;14.50
10058;BMP180;5068;51.286;7.518;2023-03-23T00:04:29;98280.00;;;14.50
10058;BMP180;5068;51.286;7.518;2023-03-23T00:06:02;98284.00;;;14.40
10058;BMP180;5068;51.286;7.518;2023-03-23T00:07:36;98275.00;;;14.40
10058;BMP180;5068;51.286;7.518;2023-03-23T00:09:09;98270.00;;;14.40
10058;BMP180;5068;51.286;7.518;2023-03-23T00:10:42;98275.00;;;14.40
10058;BMP180;5068;51.286;7.518;2023-03-23T00:12:13;98287.00;;;14.40
10058;BMP180;5068;51.286;7.518;2023-03-23T00:13:49;98282.00;;;14.40
10058;BMP180;5068;51.286;7.518;2023-03-23T00:15:22;98267.00;;;14.40
10058;BMP180;5068;51.286;7.518;2023-03-23T00:16:57;98262.00;;;14.40
10058;BMP180;5068;51.286;7.518;2023-03-23T00:18:29;98268.00;;;14.40
10058;BMP180;5068;51.286;7.518;2023-03-23T00:20:02;98263.00;;;14.40
10058;BMP180;5068;51.286;7.518;2023-03-23T00:21:39;98264.00;;;14.40
10058;BMP180;5068;51.286;7.518;2023-03-23T00:23:12;98251.00;;;14.40
10058;BMP180;5068;51.286;7.518;2023-03-23T00:24:50;98252.00;;;14.40
10058;BMP180;5068;51.286;7.518;2023-03-23T00:26:23;98253.00;;;14.40
10058;BMP180;5068;51.286;7.518;2023-03-23T00:27:54;98248.00;;;14.50
10058;BMP180;5068;51.286;7.518;2023-03-23T00:29:27;98243.00;;;14.50
10058;BMP180;5068;51.286;7.518;2023-03-23T00:31:02;98246.00;;;14.50
10058;BMP180;5068;51.286;7.518;2023-03-23T00:32:35;98246.00;;;14.50
10058;BMP180;5068;51.286;7.518;2023-03-23T00:34:09;98247.00;;;14.50
10058;BMP180;5068;51.286;7.518;2023-03-23T00:35:43;98241.00;;;14.40
10058;BMP180;5068;51.286;7.518;2023-03-23T00:37:15;98239.00;;;14.50
10058;BMP180;5068;51.286;7.518;2023-03-23T00:38:48;98243.00;;;14.50
10058;BMP180;5068;51.286;7.518;2023-03-23T00:40:21;98242.00;;;14.50
10058;BMP180;5068;51.286;7.518;2023-03-23T00:41:54;98235.00;;;14.50
10058;BMP180;5068;51.286;7.518;2023-03-23T00:43:32;98248.00;;;14.50
10058;BMP180;5068;51.286;7.518;2023-03-23T00:45:08;98232.00;;;14.50
10058;BMP180;5068;51.286;7.518;2023-03-23T00:46:42;98229.00;;;14.50
10058;BMP180;5068;51.286;7.518;2023-03-23T00:48:18;98234.00;;;14.50
10058;BMP180;5068;51.286;7.518;2023-03-23T00:49:49;98233.00;;;14.50
10058;BMP180;5068;51.286;7.518;2023-03-23T00:51:24;98230.00;;;14.50
10058;BMP180;5068;51.286;7.518;2023-03-23T00:52:55;98225.00;;;14.50
10058;BMP180;5068;51.286;7.518;2023-03-23T00:54:28;98230.00;;;14.50
10058;BMP180;5068;51.286;7.518;2023-03-23T00:56:01;98229.00;;;14.50
10058;BMP180;5068;51.286;7.518;2023-03-23T00:57:33;98231.00;;;14.50
10058;BMP180;5068;51.286;7.518;2023-03-23T00:59:05;98228.00;;;14.60
10058;BMP180;5068;51.286;7.518;2023-03-23T01:00:38;98235.00;;;14.60
10058;BMP180;5068;51.286;7.518;2023-03-23T01:02:11;98232.00;;;14.50
10058;BMP180;5068;51.286;7.518;2023-03-23T01:03:44;98226.00;;;14.60
10058;BMP180;5068;51.286;7.518;2023-03-23T01:05:16;98224.00;;;14.50
10058;BMP180;5068;51.286;7.518;2023-03-23T01:06:50;98229.00;;;14.50
10058;BMP180;5068;51.286;7.518;2023-03-23T01:08:23;98216.00;;;14.50
10058;BMP180;5068;51.286;7.518;2023-03-23T01:09:56;98211.00;;;14.50
10058;BMP180;5068;51.286;7.518;2023-03-23T01:11:28;98212.00;;;14.50
10058;BMP180;5068;51.286;7.518;2023-03-23T01:13:01;98223.00;;;14.50
10058;BMP180;5068;51.286;7.518;2023-03-23T01:14:33;98220.00;;;14.60
10058;BMP180;5068;51.286;7.518;2023-03-23T01:16:06;98214.00;;;14.60
10058;BMP180;5068;51.286;7.518;2023-03-23T01:17:38;98208.00;;;14.60
10058;BMP180;5068;51.286;7.518;2023-03-23T01:19:12;98199.00;;;14.60
10058;BMP180;5068;51.286;7.518;2023-03-23T01:20:46;98206.00;;;14.60
10058;BMP180;5068;51.286;7.518;2023-03-23T01:22:18;98209.00;;;14.60
10058;BMP180;5068;51.286;7.518;2023-03-23T01:23:51;98206.00;;;14.60
10058;BMP180;5068;51.286;7.518;2023-03-23T01:25:22;98205.00;;;14.60
10058;BMP180;5068;51.286;7.518;2023-03-23T01:26:54;98209.00;;;14.60
10058;BMP180;5068;51.286;7.518;2023-03-23T01:28:26;98209.00;;;14.60
10058;BMP180;5068;51.286;7.518;2023-03-23T01:29:58;98202.00;;;14.70
10058;BMP180;5068;51.286;7.518;2023-03-23T01:31:31;98210.00;;;14.70
10058;BMP180;5068;51.286;7.518;2023-03-23T01:33:03;98210.00;;;14.60
10058;BMP180;5068;51.286;7.518;2023-03-23T01:34:37;98208.00;;;14.60
10058;BMP180;5068;51.286;7.518;2023-03-23T01:36:13;98200.00;;;14.60
10058;BMP180;5068;51.286;7.518;2023-03-23T01:37:46;98208.00;;;14.60
10058;BMP180;5068;51.286;7.518;2023-03-23T01:39:19;98214.00;;;14.60
10058;BMP180;5068;51.286;7.518;2023-03-23T01:40:51;98211.00;;;14.60
10058;BMP180;5068;51.286;7.518;2023-03-23T01:42:23;98212.00;;;14.60
10058;BMP180;5068;51.286;7.518;2023-03-23T01:44:00;98221.00;;;14.60
10058;BMP180;5068;51.286;7.518;2023-03-23T01:45:35;98222.00;;;14.60
10058;BMP180;5068;51.286;7.518;2023-03-23T01:47:07;98213.00;;;14.60
10058;BMP180;5068;51.286;7.518;2023-03-23T01:48:40;98216.00;;;14.60
10058;BMP180;5068;51.286;7.518;2023-03-23T01:50:14;98218.00;;;14.60
10058;BMP180;5068;51.286;7.518;2023-03-23T01:51:48;98219.00;;;14.60
10058;BMP180;5068;51.286;7.518;2023-03-23T01:53:25;98227.00;;;14.60
10058;BMP180;5068;51.286;7.518;2023-03-23T01:55:00;98229.00;;;14.60
10058;BMP180;5068;51.286;7.518;2023-03-23T01:56:39;98221.00;;;14.60
10058;BMP180;5068;51.286;7.518;2023-03-23T01:58:21;98232.00;;;14.60
10058;BMP180;5068;51.286;7.518;2023-03-23T02:00:02;98224.00;;;14.60
10058;BMP180;5068;51.286;7.518;2023-03-23T02:01:56;98217.00;;;14.50
10058;BMP180;5068;51.286;7.518;2023-03-23T02:03:31;98220.00;;;14.50
10058;BMP180;5068;51.286;7.518;2023-03-23T02:05:10;98215.00;;;14.50
10058;BMP180;5068;51.286;7.518;2023-03-23T02:06:43;98216.00;;;14.50
10058;BMP180;5068;51.286;7.518;2023-03-23T02:08:24;98204.00;;;14.50
10058;BMP180;5068;51.286;7.518;2023-03-23T02:09:59;98205.00;;;14.50
10058;BMP180;5068;51.286;7.518;2023-03-23T02:11:31;98201.00;;;14.50
10058;BMP180;5068;51.286;7.518;2023-03-23T02:13:07;98211.00;;;14.50
10058;BMP180;5068;51.286;7.518;2023-03-23T02:14:40;98217.00;;;14.50
10058;BMP180;5068;51.286;7.518;2023-03-23T02:16:22;98210.00;;;14.50
10058;BMP180;5068;51.286;7.518;2023-03-23T02:18:08;98222.00;;;14.50
10058;BMP180;5068;51.286;7.518;2023-03-23T02:20:08;98216.00;;;14.40
10058;BMP180;5068;51.286;7.518;2023-03-23T02:22:16;98212.00;;;14.40
10058;BMP180;5068;51.286;7.518;2023-03-23T02:24:33;98211.00;;;14.40
10058;BMP180;5068;51.286;7.518;2023-03-23T02:26:25;98206.00;;;14.40
10058;BMP180;5068;51.286;7.518;2023-03-23T02:30:32;98205.00;;;14.40
10058;BMP180;5068;51.286;7.518;2023-03-23T02:32:24;98227.00;;;14.40
10058;BMP180;5068;51.286;7.518;2023-03-23T02:34:07;98219.00;;;14.40
10058;BMP180;5068;51.286;7.518;2023-03-23T02:35:48;98220.00;;;14.40
10058;BMP180;5068;51.286;7.518;2023-03-23T02:37:31;98219.00;;;14.40
10058;BMP180;5068;51.286;7.518;2023-03-23T02:39:08;98205.00;;;14.40
10058;BMP180;5068;51.286;7.518;2023-03-23T02:40:44;98206.00;;;14.40
10058;BMP180;5068;51.286;7.518;2023-03-23T02:42:24;98205.00;;;14.40
10058;BMP180;5068;51.286;7.518;2023-03-23T02:43:59;98208.00;;;14.50
10058;BMP180;5068;51.286;7.518;2023-03-23T02:45:35;98204.00;;;14.50
10058;BMP180;5068;51.286;7.518;2023-03-23T02:47:15;98190.00;;;14.40
10058;BMP180;5068;51.286;7.518;2023-03-23T02:48:50;98181.00;;;14.40
10058;BMP180;5068;51.286;7.518;2023-03-23T02:50:27;98165.00;;;14.40
10058;BMP180;5068;51.286;7.518;2023-03-23T02:52:07;98178.00;;;14.40
10058;BMP180;5068;51.286;7.518;2023-03-23T02:53:42;98164.00;;;14.40
10058;BMP180;5068;51.286;7.518;2023-03-23T02:56:50;98141.00;;;14.40
10058;BMP180;5068;51.286;7.518;2023-03-23T02:58:28;98137.00;;;14.40
10058;BMP180;5068;51.286;7.518;2023-03-23T03:00:04;98146.00;;;14.40
10058;BMP180;5068;51.286;7.518;2023-03-23T03:02:03;98130.00;;;14.30
10058;BMP180;5068;51.286;7.518;2023-03-23T03:03:37;98121.00;;;14.30
10058;BMP180;5068;51.286;7.518;2023-03-23T03:05:25;98123.00;;;14.30
10058;BMP180;5068;51.286;7.518;2023-03-23T03:07:18;98122.00;;;14.30
10058;BMP180;5068;51.286;7.518;2023-03-23T03:09:02;98118.00;;;14.30
10058;BMP180;5068;51.286;7.518;2023-03-23T03:10:46;98128.00;;;14.20
10058;BMP180;5068;51.286;7.518;2023-03-23T03:12:31;98124.00;;;14.20
10058;BMP180;5068;51.286;7.518;2023-03-23T03:14:13;98124.00;;;14.20
10058;BMP180;5068;51.286;7.518;2023-03-23T03:15:56;98115.00;;;14.20
10058;BMP180;5068;51.286;7.518;2023-03-23T03:17:31;98123.00;;;14.20
10058;BMP180;5068;51.286;7.518;2023-03-23T03:19:14;98118.00;;;14.20
10058;BMP180;5068;51.286;7.518;2023-03-23T03:20:54;98119.00;;;14.20
10058;BMP180;5068;51.286;7.518;2023-03-23T03:22:30;98116.00;;;14.20
10058;BMP180;5068;51.286;7.518;2023-03-23T03:24:04;98123.00;;;14.20
10058;BMP180;5068;51.286;7.518;2023-03-23T03:25:42;98126.00;;;14.20
10058;BMP180;5068;51.286;7.518;2023-03-23T03:27:20;98128.00;;;14.20
10058;BMP180;5068;51.286;7.518;2023-03-23T03:29:02;98122.00;;;14.10
10058;BMP180;5068;51.286;7.518;2023-03-23T03:30:40;98125.00;;;14.10
10058;BMP180;5068;51.286;7.518;2023-03-23T03:32:19;98121.00;;;14.10
10058;BMP180;5068;51.286;7.518;2023-03-23T03:33:53;98126.00;;;14.10
10058;BMP180;5068;51.286;7.518;2023-03-23T03:35:28;98128.00;;;14.10
10058;BMP180;5068;51.286;7.518;2023-03-23T03:37:04;98120.00;;;14.10
10058;BMP180;5068;51.286;7.518;2023-03-23T03:38:42;98127.00;;;14.10
10058;BMP180;5068;51.286;7.518;2023-03-23T03:40:18;98127.00;;;14.10
10058;BMP180;5068;51.286;7.518;2023-03-23T03:41:50;98133.00;;;14.10
10058;BMP180;5068;51.286;7.518;2023-03-23T03:43:22;98130.00;;;14.10
10058;BMP180;5068;51.286;7.518;2023-03-23T03:44:55;98125.00;;;14.10
10058;BMP180;5068;51.286;7.518;2023-03-23T03:46:27;98124.00;;;14.10
10058;BMP180;5068;51.286;7.518;2023-03-23T03:48:01;98125.00;;;14.10
10058;BMP180;5068;51.286;7.518;2023-03-23T03:49:33;98127.00;;;14.00
10058;BMP180;5068;51.286;7.518;2023-03-23T03:51:06;98127.00;;;14.00
10058;BMP180;5068;51.286;7.518;2023-03-23T03:52:43;98137.00;;;14.00
10058;BMP180;5068;51.286;7.518;2023-03-23T03:54:15;98143.00;;;14.00
10058;BMP180;5068;51.286;7.518;2023-03-23T03:55:48;98134.00;;;13.90
10058;BMP180;5068;51.286;7.518;2023-03-23T03:57:21;98140.00;;;13.90
10058;BMP180;5068;51.286;7.518;2023-03-23T03:59:12;98135.00;;;13.90
10058;BMP180;5068;51.286;7.518;2023-03-23T04:01:06;98143.00;;;13.90
10058;BMP180;5068;51.286;7.518;2023-03-23T04:02:46;98139.00;;;13.90
10058;BMP180;5068;51.286;7.518;2023-03-23T04:04:27;98139.00;;;13.90
10058;BMP180;5068;51.286;7.518;2023-03-23T04:06:00;98134.00;;;13.90
10058;BMP180;5068;51.286;7.518;2023-03-23T04:07:32;98130.00;;;13.90
10058;BMP180;5068;51.286;7.518;2023-03-23T04:09:05;98144.00;;;13.90
10058;BMP180;5068;51.286;7.518;2023-03-23T04:10:39;98134.00;;;13.90
10058;BMP180;5068;51.286;7.518;2023-03-23T04:12:12;98137.00;;;13.90
10058;BMP180;5068;51.286;7.518;2023-03-23T04:14:17;98140.00;;;13.90
10058;BMP180;5068;51.286;7.518;2023-03-23T04:15:50;98143.00;;;13.90
10058;BMP180;5068;51.286;7.518;2023-03-23T04:17:22;98142.00;;;13.90
10058;BMP180;5068;51.286;7.518;2023-03-23T04:18:53;98147.00;;;13.90
10058;BMP180;5068;51.286;7.518;2023-03-23T04:20:27;98141.00;;;13.90
10058;BMP180;5068;51.286;7.518;2023-03-23T04:22:00;98128.00;;;13.90
10058;BMP180;5068;51.286;7.518;2023-03-23T04:23:35;98133.00;;;13.90
10058;BMP180;5068;51.286;7.518;2023-03-23T04:25:11;98139.00;;;13.90
10058;BMP180;5068;51.286;7.518;2023-03-23T04:26:46;98129.00;;;13.90
10058;BMP180;5068;51.286;7.518;2023-03-23T04:28:27;98125.00;;;13.90
10058;BMP180;5068;51.286;7.518;2023-03-23T04:30:22;98137.00;;;13.90
10058;BMP180;5068;51.286;7.518;2023-03-23T04:32:25;98136.00;;;13.90
10058;BMP180;5068;51.286;7.518;2023-03-23T04:34:00;98127.00;;;13.90
10058;BMP180;5068;51.286;7.518;2023-03-23T04:35:37;98128.00;;;13.90
10058;BMP180;5068;51.286;7.518;2023-03-23T04:37:23;98125.00;;;13.80
10058;BMP180;5068;51.286;7.518;2023-03-23T04:38:59;98126.00;;;13.80
10058;BMP180;5068;51.286;7.518;2023-03-23T04:40:36;98125.00;;;13.80
10058;BMP180;5068;51.286;7.518;2023-03-23T04:42:19;98125.00;;;13.80
10058;BMP180;5068;51.286;7.518;2023-03-23T04:43:52;98122.00;;;13.80
10058;BMP180;5068;51.286;7.518;2023-03-23T04:45:35;98130.00;;;13.70
10058;BMP180;5068;51.286;7.518;2023-03-23T04:47:08;98111.00;;;13.70
10058;BMP180;5068;51.286;7.518;2023-03-23T04:48:48;98121.00;;;13.70
10058;BMP180;5068;51.286;7.518;2023-03-23T04:50:29;98124.00;;;13.70
10058;BMP180;5068;51.286;7.518;2023-03-23T04:52:10;98128.00;;;13.70
10058;BMP180;5068;51.286;7.518;2023-03-23T04:53:48;98124.00;;;13.70
10058;BMP180;5068;51.286;7.518;2023-03-23T04:55:21;98128.00;;;13.70
10058;BMP180;5068;51.286;7.518;2023-03-23T04:57:01;98129.00;;;13.70
10058;BMP180;5068;51.286;7.518;2023-03-23T04:58:32;98128.00;;;13.70
10058;BMP180;5068;51.286;7.518;2023-03-23T05:00:15;98138.00;;;13.70
10058;BMP180;5068;51.286;7.518;2023-03-23T05:01:56;98138.00;;;13.70
10058;BMP180;5068;51.286;7.518;2023-03-23T05:03:30;98146.00;;;13.70
10058;BMP180;5068;51.286;7.518;2023-03-23T05:05:03;98142.00;;;13.70
10058;BMP180;5068;51.286;7.518;2023-03-23T05:06:34;98137.00;;;13.70
10058;BMP180;5068;51.286;7.518;2023-03-23T05:08:15;98142.00;;;13.70
10058;BMP180;5068;51.286;7.518;2023-03-23T05:09:48;98143.00;;;13.70
10058;BMP180;5068;51.286;7.518;2023-03-23T05:11:21;98147.00;;;13.70
10058;BMP180;5068;51.286;7.518;2023-03-23T05:12:55;98145.00;;;13.80
10058;BMP180;5068;51.286;7.518;2023-03-23T05:14:27;98139.00;;;13.80
10058;BMP180;5068;51.286;7.518;2023-03-23T05:16:08;98142.00;;;13.80
10058;BMP180;5068;51.286;7.518;2023-03-23T05:17:43;98141.00;;;13.80
10058;BMP180;5068;51.286;7.518;2023-03-23T05:19:19;98140.00;;;13.80
10058;BMP180;5068;51.286;7.518;2023-03-23T05:20:52;98144.00;;;13.80
10058;BMP180;5068;51.286;7.518;2023-03-23T05:22:27;98141.00;;;13.80
10058;BMP180;5068;51.286;7.518;2023-03-23T05:24:04;98141.00;;;13.80
10058;BMP180;5068;51.286;7.518;2023-03-23T05:25:37;98138.00;;;13.80
10058;BMP180;5068;51.286;7.518;2023-03-23T05:27:18;98134.00;;;13.80
10058;BMP180;5068;51.286;7.518;2023-03-23T05:28:54;98127.00;;;13.80
10058;BMP180;5068;51.286;7.518;2023-03-23T05:30:29;98142.00;;;13.80
10058;BMP180;5068;51.286;7.518;2023-03-23T05:32:03;98147.00;;;13.80
10058;BMP180;5068;51.286;7.518;2023-03-23T05:33:40;98147.00;;;13.80
10058;BMP180;5068;51.286;7.518;2023-03-23T05:35:21;98146.00;;;13.80
10058;BMP180;5068;51.286;7.518;2023-03-23T05:36:56;98132.00;;;13.80
10058;BMP180;5068;51.286;7.518;2023-03-23T05:38:40;98147.00;;;13.80
10058;BMP180;5068;51.286;7.518;2023-03-23T05:40:16;98151.00;;;13.80
10058;BMP180;5068;51.286;7.518;2023-03-23T05:41:52;98137.00;;;13.80
10058;BMP180;5068;51.286;7.518;2023-03-23T05:43:24;98138.00;;;13.80
10058;BMP180;5068;51.286;7.518;2023-03-23T05:45:15;98152.00;;;13.80
10058;BMP180;5068;51.286;7.518;2023-03-23T05:46:49;98153.00;;;13.80
10058;BMP180;5068;51.286;7.518;2023-03-23T05:48:21;98146.00;;;13.90
10058;BMP180;5068;51.286;7.518;2023-03-23T05:49:54;98153.00;;;13.90
10058;BMP180;5068;51.286;7.518;2023-03-23T05:51:28;98152.00;;;13.90
10058;BMP180;5068;51.286;7.518;2023-03-23T05:53:01;98154.00;;;13.90
10058;BMP180;5068;51.286;7.518;2023-03-23T05:54:37;98163.00;;;13.90
10058;BMP180;5068;51.286;7.518;2023-03-23T05:56:09;98156.00;;;13.90
10058;BMP180;5068;51.286;7.518;2023-03-23T05:58:03;98168.00;;;13.90
10058;BMP180;5068;51.286;7.518;2023-03-23T05:59:38;98165.00;;;13.90
10058;BMP180;5068;51.286;7.518;2023-03-23T06:01:18;98161.00;;;13.90
10058;BMP180;5068;51.286;7.518;2023-03-23T06:02:54;98176.00;;;13.90
10058;BMP180;5068;51.286;7.518;2023-03-23T06:04:33;98160.00;;;13.90
10058;BMP180;5068;51.286;7.518;2023-03-23T06:06:14;98166.00;;;13.90
10058;BMP180;5068;51.286;7.518;2023-03-23T06:08:06;98170.00;;;14.00
10058;BMP180;5068;51.286;7.518;2023-03-23T06:09:39;98165.00;;;14.00
10058;BMP180;5068;51.286;7.518;2023-03-23T06:11:29;98165.00;;;14.00
10058;BMP180;5068;51.286;7.518;2023-03-23T06:13:17;98160.00;;;14.00
10058;BMP180;5068;51.286;7.518;2023-03-23T06:14:52;98170.00;;;14.00
10058;BMP180;5068;51.286;7.518;2023-03-23T06:16:31;98174.00;;;14.00
10058;BMP180;5068;51.286;7.518;2023-03-23T06:18:07;98185.00;;;14.00
10058;BMP180;5068;51.286;7.518;2023-03-23T06:19:46;98174.00;;;14.00
10058;BMP180;5068;51.286;7.518;2023-03-23T06:21:22;98180.00;;;14.00
10058;BMP180;5068;51.286;7.518;2023-03-23T06:22:58;98177.00;;;14.10
10058;BMP180;5068;51.286;7.518;2023-03-23T06:24:36;98178.00;;;14.10
10058;BMP180;5068;51.286;7.518;2023-03-23T06:26:09;98176.00;;;14.10
10058;BMP180;5068;51.286;7.518;2023-03-23T06:27:44;98186.00;;;14.10
10058;BMP180;5068;51.286;7.518;2023-03-23T06:29:17;98183.00;;;14.10
10058;BMP180;5068;51.286;7.518;2023-03-23T06:30:54;98198.00;;;14.20
10058;BMP180;5068;51.286;7.518;2023-03-23T06:32:30;98198.00;;;14.20
10058;BMP180;5068;51.286;7.518;2023-03-23T06:34:03;98195.00;;;14.20
10058;BMP180;5068;51.286;7.518;2023-03-23T06:36:08;98190.00;;;14.20
10058;BMP180;5068;51.286;7.518;2023-03-23T06:38:02;98191.00;;;14.20
10058;BMP180;5068;51.286;7.518;2023-03-23T06:39:48;98195.00;;;14.20
10058;BMP180;5068;51.286;7.518;2023-03-23T06:41:32;98203.00;;;14.20
10058;BMP180;5068;51.286;7.518;2023-03-23T06:43:04;98201.00;;;14.20
10058;BMP180;5068;51.286;7.518;2023-03-23T06:44:51;98198.00;;;14.20
10058;BMP180;5068;51.286;7.518;2023-03-23T06:46:28;98190.00;;;14.20
10058;BMP180;5068;51.286;7.518;2023-03-23T06:48:01;98200.00;;;14.30
10058;BMP180;5068;51.286;7.518;2023-03-23T06:49:35;98202.00;;;14.30
10058;BMP180;5068;51.286;7.518;2023-03-23T06:51:16;98189.00;;;14.30
10058;BMP180;5068;51.286;7.518;2023-03-23T06:52:53;98204.00;;;14.30
10058;BMP180;5068;51.286;7.518;2023-03-23T06:54:26;98204.00;;;14.30
10058;BMP180;5068;51.286;7.518;2023-03-23T06:55:59;98200.00;;;14.40
10058;BMP180;5068;51.286;7.518;2023-03-23T06:57:32;98202.00;;;14.40
10058;BMP180;5068;51.286;7.518;2023-03-23T06:59:04;98201.00;;;14.40
10058;BMP180;5068;51.286;7.518;2023-03-23T07:00:37;98207.00;;;14.40
10058;BMP180;5068;51.286;7.518;2023-03-23T07:02:12;98210.00;;;14.40
10058;BMP180;5068;51.286;7.518;2023-03-23T07:03:48;98211.00;;;14.40
10058;BMP180;5068;51.286;7.518;2023-03-23T07:05:26;98212.00;;;14.40
10058;BMP180;5068;51.286;7.518;2023-03-23T07:06:59;98210.00;;;14.40
10058;BMP180;5068;51.286;7.518;2023-03-23T07:08:32;98213.00;;;14.40
10058;BMP180;5068;51.286;7.518;2023-03-23T07:10:07;98201.00;;;14.40
10058;BMP180;5068;51.286;7.518;2023-03-23T07:11:40;98214.00;;;14.50
10058;BMP180;5068;51.286;7.518;2023-03-23T07:13:23;98200.00;;;14.50
10058;BMP180;5068;51.286;7.518;2023-03-23T07:15:00;98205.00;;;14.50
10058;BMP180;5068;51.286;7.518;2023-03-23T07:16:32;98212.00;;;14.50
10058;BMP180;5068;51.286;7.518;2023-03-23T07:18:05;98218.00;;;14.50
10058;BMP180;5068;51.286;7.518;2023-03-23T07:19:47;98219.00;;;14.60
10058;BMP180;5068;51.286;7.518;2023-03-23T07:21:21;98224.00;;;14.60
10058;BMP180;5068;51.286;7.518;2023-03-23T07:22:54;98222.00;;;14.60
10058;BMP180;5068;51.286;7.518;2023-03-23T07:24:44;98219.00;;;14.60
10058;BMP180;5068;51.286;7.518;2023-03-23T07:26:23;98215.00;;;14.60
10058;BMP180;5068;51.286;7.518;2023-03-23T07:27:59;98226.00;;;14.60
10058;BMP180;5068;51.286;7.518;2023-03-23T07:29:31;98219.00;;;14.60
10058;BMP180;5068;51.286;7.518;2023-03-23T07:31:12;98230.00;;;14.60
10058;BMP180;5068;51.286;7.518;2023-03-23T07:32:46;98226.00;;;14.60
10058;BMP180;5068;51.286;7.518;2023-03-23T07:34:19;98215.00;;;14.60
10058;BMP180;5068;51.286;7.518;2023-03-23T07:36:09;98227.00;;;14.60
10058;BMP180;5068;51.286;7.518;2023-03-23T07:37:42;98235.00;;;14.60
10058;BMP180;5068;51.286;7.518;2023-03-23T07:39:14;98230.00;;;14.60
10058;BMP180;5068;51.286;7.518;2023-03-23T07:40:47;98235.00;;;14.60
10058;BMP180;5068;51.286;7.518;2023-03-23T07:42:21;98238.00;;;14.60
10058;BMP180;5068;51.286;7.518;2023-03-23T07:44:00;98232.00;;;14.60
10058;BMP180;5068;51.286;7.518;2023-03-23T07:45:38;98240.00;;;14.60
10058;BMP180;5068;51.286;7.518;2023-03-23T07:47:11;98233.00;;;14.70
10058;BMP180;5068;51.286;7.518;2023-03-23T07:48:44;98226.00;;;14.70
10058;BMP180;5068;51.286;7.518;2023-03-23T07:50:17;98223.00;;;14.70
10058;BMP180;5068;51.286;7.518;2023-03-23T07:51:53;98216.00;;;14.70
10058;BMP180;5068;51.286;7.518;2023-03-23T07:53:27;98228.00;;;14.70
10058;BMP180;5068;51.286;7.518;2023-03-23T07:55:11;98228.00;;;14.80
10058;BMP180;5068;51.286;7.518;2023-03-23T07:57:11;98230.00;;;14.80
10058;BMP180;5068;51.286;7.518;2023-03-23T07:58:45;98234.00;;;14.80
10058;BMP180;5068;51.286;7.518;2023-03-23T08:00:21;98229.00;;;14.80
10058;BMP180;5068;51.286;7.518;2023-03-23T08:01:56;98223.00;;;14.80
10058;BMP180;5068;51.286;7.518;2023-03-23T08:03:55;98229.00;;;14.80
10058;BMP180;5068;51.286;7.518;2023-03-23T08:05:51;98230.00;;;14.80
10058;BMP180;5068;51.286;7.518;2023-03-23T08:07:49;98224.00;;;14.80
10058;BMP180;5068;51.286;7.518;2023-03-23T08:09:47;98216.00;;;14.80
10058;BMP180;5068;51.286;7.518;2023-03-23T08:11:40;98217.00;;;14.90
10058;BMP180;5068;51.286;7.518;2023-03-23T08:13:18;98219.00;;;14.90
10058;BMP180;5068;51.286;7.518;2023-03-23T08:15:13;98221.00;;;14.90
10058;BMP180;5068;51.286;7.518;2023-03-23T08:17:06;98223.00;;;14.90
10058;BMP180;5068;51.286;7.518;2023-03-23T08:18:59;98214.00;;;14.90
10058;BMP180;5068;51.286;7.518;2023-03-23T08:20:50;98222.00;;;14.90
10058;BMP180;5068;51.286;7.518;2023-03-23T08:22:37;98231.00;;;14.90
10058;BMP180;5068;51.286;7.518;2023-03-23T08:24:34;98224.00;;;15.00
10058;BMP180;5068;51.286;7.518;2023-03-23T08:26:42;98221.00;;;15.00
10058;BMP180;5068;51.286;7.518;2023-03-23T08:28:33;98230.00;;;15.00
10058;BMP180;5068;51.286;7.518;2023-03-23T08:30:33;98230.00;;;15.00
10058;BMP180;5068;51.286;7.518;2023-03-23T08:32:23;98242.00;;;15.00
10058;BMP180;5068;51.286;7.518;2023-03-23T08:34:19;98234.00;;;15.00
10058;BMP180;5068;51.286;7.518;2023-03-23T08:36:11;98232.00;;;15.00
10058;BMP180;5068;51.286;7.518;2023-03-23T08:38:13;98230.00;;;15.00
10058;BMP180;5068;51.286;7.518;2023-03-23T08:40:19;98239.00;;;15.00
10058;BMP180;5068;51.286;7.518;2023-03-23T08:41:51;98234.00;;;15.00
10058;BMP180;5068;51.286;7.518;2023-03-23T08:43:46;98231.00;;;15.00
10058;BMP180;5068;51.286;7.518;2023-03-23T08:45:33;98231.00;;;15.00
10058;BMP180;5068;51.286;7.518;2023-03-23T08:47:28;98234.00;;;15.10
10058;BMP180;5068;51.286;7.518;2023-03-23T08:49:18;98236.00;;;15.10
10058;BMP180;5068;51.286;7.518;2023-03-23T08:51:20;98238.00;;;15.10
10058;BMP180;5068;51.286;7.518;2023-03-23T08:53:13;98235.00;;;15.20
10058;BMP180;5068;51.286;7.518;2023-03-23T08:55:01;98227.00;;;15.20
10058;BMP180;5068;51.286;7.518;2023-03-23T08:56:59;98246.00;;;15.20
10058;BMP180;5068;51.286;7.518;2023-03-23T08:58:48;98236.00;;;15.20
10058;BMP180;5068;51.286;7.518;2023-03-23T09:00:35;98231.00;;;15.20
10058;BMP180;5068;51.286;7.518;2023-03-23T09:02:09;98231.00;;;15.20
10058;BMP180;5068;51.286;7.518;2023-03-23T09:03:48;98238.00;;;15.30
10058;BMP180;5068;51.286;7.518;2023-03-23T09:05:40;98242.00;;;15.30
10058;BMP180;5068;51.286;7.518;2023-03-23T09:07:30;98252.00;;;15.30
10058;BMP180;5068;51.286;7.518;2023-03-23T09:09:04;98250.00;;;15.30
10058;BMP180;5068;51.286;7.518;2023-03-23T09:10:37;98246.00;;;15.40
10058;BMP180;5068;51.286;7.518;2023-03-23T09:12:11;98251.00;;;15.40
10058;BMP180;5068;51.286;7.518;2023-03-23T09:13:44;98251.00;;;15.40
10058;BMP180;5068;51.286;7.518;2023-03-23T09:15:17;98245.00;;;15.50
10058;BMP180;5068;51.286;7.518;2023-03-23T09:16:50;98260.00;;;15.50
10058;BMP180;5068;51.286;7.518;2023-03-23T09:18:23;98257.00;;;15.50
10058;BMP180;5068;51.286;7.518;2023-03-23T09:19:55;98257.00;;;15.60
10058;BMP180;5068;51.286;7.518;2023-03-23T09:21:28;98254.00;;;15.60
10058;BMP180;5068;51.286;7.518;2023-03-23T09:23:01;98244.00;;;15.60
10058;BMP180;5068;51.286;7.518;2023-03-23T09:24:33;98261.00;;;15.70
10058;BMP180;5068;51.286;7.518;2023-03-23T09:26:05;98266.00;;;15.70
10058;BMP180;5068;51.286;7.518;2023-03-23T09:27:41;98267.00;;;15.70
10058;BMP180;5068;51.286;7.518;2023-03-23T09:29:13;98274.00;;;15.70
10058;BMP180;5068;51.286;7.518;2023-03-23T09:30:46;98268.00;;;15.70
10058;BMP180;5068;51.286;7.518;2023-03-23T09:32:18;98280.00;;;15.70
10058;BMP180;5068;51.286;7.518;2023-03-23T09:33:53;98280.00;;;15.70
10058;BMP180;5068;51.286;7.518;2023-03-23T09:35:27;98275.00;;;15.70
10058;BMP180;5068;51.286;7.518;2023-03-23T09:37:00;98275.00;;;15.70
10058;BMP180;5068;51.286;7.518;2023-03-23T09:38:35;98281.00;;;15.70
10058;BMP180;5068;51.286;7.518;2023-03-23T09:40:14;98289.00;;;15.70